Latest Weather Observations for Sydney - Observatory Hill

IDN60801

Issued at 11:32 am EDT Tuesday 19 February 2019 (issued every 10 minutes, with the page automatically refreshed every 10 minutes)

About weather observations | Map of weather stations | Latest weather observations for NSW | Other Formats
Station Details ID: 066062 Name: SYDNEY (OBSERVATORY HILL) Lat: -33.86 Lon: 151.21 Height: 39.0 m
Data from the previous 72 hours. | See also: Recent months at Sydney - Observatory Hill

* Apparent temperature (App Temp) for Sydney - Observatory Hill is calculated using temperature observations collected at Sydney - Observatory Hill and wind observations collected at Fort Denison, as wind observations are not currently provided for Sydney - Observatory Hill.

Date/Time
EDT
Temp
°C
App
Temp
°C
Dew
Point
°C
Rel
Hum
%
Delta-T
°C
Wind Press
QNH
hPa
Press
MSL
hPa
Rain since
9am
mm
Dir  Spd
km/h
Gust
km/h
Spd
kts
Gust
kts
19/11:30am 26.7 23.6 17.5 57 5.8 SSW 30 - 16 - 1006.9 1006.7 0.0
19/11:00am 27.5 25.1 16.5 51 6.8 S 24 - 13 - 1006.7 1006.5 0.0
19/10:30am 30.5 32.6 17.2 44 8.4 NNE 2 - 1 - 1006.2 1006.0 0.0
19/10:00am 28.3 29.0 16.2 47 7.5 WNW 7 - 4 - 1006.3 1006.1 0.0
19/09:30am 26.8 29.1 17.6 57 5.8 WNW 2 - 1 - 1005.9 1005.7 0.0
19/09:00am 25.6 25.7 18.3 64 4.6 WSW 15 - 8 - 1006.1 1005.9 0.0
19/08:30am 24.1 25.7 18.3 70 3.7 NW 7 - 4 - 1005.7 1005.5 0.0
19/08:00am 23.5 25.2 18.6 74 3.1 NW 7 - 4 - 1005.7 1005.5 0.0
19/07:30am 23.3 25.2 18.6 75 3.0 N 6 - 3 - 1005.3 1005.1 0.0
19/07:00am 22.9 24.7 18.7 77 2.7 NNE 7 - 4 - 1005.6 1005.4 0.0
19/06:30am 22.8 23.9 18.8 78 2.5 NE 11 - 6 - 1005.6 1005.4 0.0
19/06:00am 22.8 23.9 18.8 78 2.5 NNE 11 - 6 - 1005.8 1005.6 0.0
19/05:30am 22.5 22.4 18.7 79 2.4 ENE 17 - 9 - 1005.2 1005.0 0.0
19/05:00am 22.4 21.4 18.8 80 2.3 ENE 22 - 12 - 1005.1 1004.9 0.0
19/04:30am 22.6 20.8 18.8 79 2.4 E 26 - 14 - 1005.2 1005.0 0.0
19/04:00am 23.1 21.7 18.8 77 2.7 ESE 24 - 13 - 1005.9 1005.7 0.0
19/03:30am 23.2 25.0 18.7 76 2.8 SSE 7 - 4 - 1007.1 1006.9 0.0
19/03:00am 23.2 25.4 18.3 74 3.1 WSW 4 - 2 - 1007.8 1007.6 0.0
19/02:30am 23.0 24.7 18.1 74 3.1 SW 6 - 3 - 1007.5 1007.3 0.0
19/02:00am 23.1 23.9 18.2 74 3.1 E 11 - 6 - 1006.8 1006.6 0.0
19/01:30am 23.5 25.4 17.7 70 3.6 E 4 - 2 - 1007.0 1006.8 0.0
19/01:00am 24.0 25.5 17.5 67 4.1 SE 6 - 3 - 1007.0 1006.8 0.0
19/12:30am 24.5 23.7 17.0 63 4.6 ESE 17 - 9 - 1007.0 1006.8 0.0
19/12:00am 24.9 25.5 15.2 54 5.9 E 6 - 3 - 1007.5 1007.3 0.0
 
Date/Time
EDT
Temp
°C
App
Temp
°C
Dew
Point
°C
Rel
Hum
%
Delta-T
°C
Wind Press
QNH
hPa
Press
MSL
hPa
Rain since
9am
mm
Dir  Spd
km/h
Gust
km/h
Spd
kts
Gust
kts
18/11:30pm 24.9 23.6 15.8 57 5.5 SSW 17 - 9 - 1007.5 1007.3 0.0
18/11:00pm 23.7 25.3 17.9 70 3.6 SSE 6 - 3 - 1006.9 1006.7 0.0
18/10:30pm 23.9 23.9 18.1 70 3.6 NNE 15 - 8 - 1006.4 1006.2 0.0
18/10:00pm 24.1 22.4 18.1 69 3.8 NNE 24 - 13 - 1006.3 1006.1 0.0
18/09:30pm 24.3 21.7 17.8 67 4.1 NNE 28 - 15 - 1006.2 1006.0 0.0
18/09:00pm 24.7 21.2 17.9 66 4.3 NNE 33 - 18 - 1005.8 1005.6 0.0
18/08:30pm 24.8 20.6 18.0 66 4.3 NNE 37 - 20 - 1005.6 1005.4 0.0
18/08:00pm 25.1 21.6 17.8 64 4.6 NNE 33 - 18 - 1005.3 1005.1 0.0
18/07:30pm 25.3 21.3 17.7 62 4.8 NNE 35 - 19 - 1005.0 1004.8 0.0
18/07:00pm 25.8 22.0 17.2 59 5.4 NNE 33 - 18 - 1004.9 1004.7 0.0
18/06:30pm 26.3 22.5 16.8 56 5.9 NNE 32 - 17 - 1005.0 1004.8 0.0
18/06:00pm 27.1 23.4 17.0 54 6.3 NE 32 - 17 - 1005.1 1004.9 0.0
18/05:30pm 27.4 25.0 16.4 51 6.8 NE 24 - 13 - 1005.3 1005.1 0.0
18/05:00pm 28.4 26.0 16.3 47 7.5 NE 24 - 13 - 1005.4 1005.2 0.0
18/04:30pm 28.1 26.8 15.7 46 7.6 NE 17 - 9 - 1005.6 1005.4 0.0
18/04:00pm 29.1 27.9 17.0 48 7.6 NE 19 - 10 - 1005.9 1005.7 0.0
18/03:30pm 28.3 27.8 15.9 47 7.6 NE 13 - 7 - 1006.3 1006.1 0.0
18/03:00pm 28.6 28.1 16.8 48 7.4 NE 15 - 8 - 1006.8 1006.6 0.0
18/02:30pm 28.1 27.1 16.7 50 7.1 ENE 17 - 9 - 1007.4 1007.2 0.0
18/02:00pm 26.9 24.4 17.1 55 6.1 ENE 26 - 14 - 1007.9 1007.7 0.0
18/01:30pm 27.2 25.2 17.4 55 6.2 ENE 24 - 13 - 1008.4 1008.2 0.0
18/01:00pm 26.4 24.3 17.2 57 5.8 E 24 - 13 - 1008.7 1008.5 0.0
18/12:30pm 27.0 25.5 17.8 57 5.8 ENE 22 - 12 - 1009.1 1008.9 0.0
18/12:00pm 26.8 25.6 17.6 57 5.8 ENE 20 - 11 - 1009.8 1009.6 0.0
18/11:30am 26.5 25.0 17.6 58 5.6 E 22 - 12 - 1010.2 1010.0 0.0
18/11:00am 27.5 26.5 17.9 55 6.1 E 20 - 11 - 1010.5 1010.3 0.0
18/10:30am 27.4 26.9 17.8 55 6.1 E 17 - 9 - 1010.7 1010.5 0.0
18/10:00am 27.8 27.7 17.9 54 6.3 E 15 - 8 - 1010.9 1010.7 0.0
18/09:30am 26.5 26.7 17.6 58 5.6 E 13 - 7 - 1011.0 1010.8 0.0
18/09:00am 24.4 25.9 16.6 61 4.8 SE 4 - 2 - 1011.0 1010.8 0.0
18/08:30am 24.6 26.4 17.3 64 4.5 NE 4 - 2 - 1010.9 1010.7 0.0
18/08:00am 23.9 26.2 17.6 68 3.9 NE 2 - 1 - 1010.7 1010.5 0.0
18/07:30am 22.3 24.3 17.9 76 2.7 E 4 - 2 - 1010.5 1010.3 0.0
18/07:00am 21.6 23.5 17.6 78 2.5 ENE 4 - 2 - 1010.3 1010.1 0.0
18/06:30am 21.3 23.4 17.3 78 2.5 ENE 2 - 1 - 1010.2 1010.0 0.0
18/06:00am 21.5 23.0 17.5 78 2.5 NE 6 - 3 - 1010.1 1009.9 0.0
18/05:30am 21.4 23.5 17.2 77 2.6 NNE 2 - 1 - 1010.0 1009.8 0.0
18/05:00am 21.6 22.9 17.2 76 2.7 NE 6 - 3 - 1009.9 1009.7 0.0
18/04:30am 21.7 23.2 17.5 77 2.6 NNE 6 - 3 - 1009.9 1009.7 0.0
18/04:00am 21.7 23.5 17.5 77 2.6 NE 4 - 2 - 1009.9 1009.7 0.0
18/03:30am 21.7 23.2 17.7 78 2.5 NE 6 - 3 - 1010.2 1010.0 0.0
18/03:00am 21.7 23.1 17.7 78 2.5 NE 7 - 4 - 1010.4 1010.2 0.0
18/02:30am 21.9 23.4 18.1 79 2.4 NE 7 - 4 - 1010.4 1010.2 0.0
18/02:00am 22.0 22.7 18.0 78 2.5 ENE 11 - 6 - 1010.6 1010.4 0.0
18/01:30am 22.3 23.8 17.7 75 2.9 NE 6 - 3 - 1011.1 1010.9 0.0
18/01:00am 22.5 23.7 17.4 73 3.2 ENE 7 - 4 - 1011.6 1011.5 0.0
18/12:30am 22.9 23.5 17.6 72 3.3 ENE 11 - 6 - 1011.7 1011.6 0.0
18/12:00am 23.0 23.9 17.5 71 3.4 NNE 9 - 5 - 1012.0 1011.9 0.0
 
Date/Time
EDT
Temp
°C
App
Temp
°C
Dew
Point
°C
Rel
Hum
%
Delta-T
°C
Wind Press
QNH
hPa
Press
MSL
hPa
Rain since
9am
mm
Dir  Spd
km/h
Gust
km/h
Spd
kts
Gust
kts
17/11:30pm 23.5 23.3 17.7 70 3.6 NNE 15 - 8 - 1012.2 1012.1 0.0
17/11:00pm 23.6 23.1 17.8 70 3.6 NNE 17 - 9 - 1012.3 1012.2 0.0
17/10:30pm 23.7 23.6 17.9 70 3.6 NNE 15 - 8 - 1012.5 1012.4 0.0
17/10:00pm 23.8 22.8 18.0 70 3.6 NE 20 - 11 - 1012.3 1012.2 0.0
17/09:30pm 24.0 22.3 18.0 69 3.8 NE 24 - 13 - 1011.9 1011.8 0.0
17/09:00pm 24.1 22.9 17.6 67 4.1 NE 20 - 11 - 1011.6 1011.5 0.0
17/08:30pm 24.3 22.9 17.1 64 4.5 NE 20 - 11 - 1011.4 1011.3 0.0
17/08:00pm 24.6 23.1 16.8 62 4.8 NE 20 - 11 - 1011.0 1010.8 0.0
17/07:30pm 24.9 22.5 16.3 59 5.3 NE 24 - 13 - 1010.7 1010.5 0.0
17/07:00pm 25.5 23.7 16.1 56 5.8 NE 20 - 11 - 1010.5 1010.3 0.0
17/06:30pm 26.2 24.7 16.2 54 6.1 NE 19 - 10 - 1010.5 1010.3 0.0
17/06:00pm 26.6 23.4 15.3 50 6.9 NE 26 - 14 - 1010.5 1010.3 0.0
17/05:30pm 27.0 24.1 15.1 48 7.2 NE 24 - 13 - 1010.5 1010.3 0.0
17/05:00pm 27.5 25.0 15.2 47 7.5 NE 22 - 12 - 1010.7 1010.5 0.0
17/04:30pm 27.3 23.7 15.3 48 7.3 NE 28 - 15 - 1010.8 1010.6 0.0
17/04:00pm 27.0 24.1 16.0 51 6.8 NE 26 - 14 - 1011.1 1010.9 0.0
17/03:30pm 27.4 24.6 15.4 48 7.3 NE 24 - 13 - 1011.3 1011.2 0.0
17/03:00pm 27.8 25.3 15.1 46 7.7 NE 22 - 12 - 1011.6 1011.5 0.0
17/02:30pm 27.7 25.4 14.7 45 7.9 NE 20 - 11 - 1012.1 1012.0 0.0
17/02:00pm 28.0 25.7 14.6 44 8.1 ENE 20 - 11 - 1012.5 1012.4 0.0
17/01:30pm 27.2 25.0 15.9 50 6.9 E 22 - 12 - 1012.8 1012.7 0.0
17/01:00pm 27.0 24.7 15.7 50 6.9 E 22 - 12 - 1013.3 1013.2 0.0
17/12:30pm 26.6 22.9 14.0 46 7.5 E 26 - 14 - 1013.6 1013.5 0.0
17/12:00pm 27.1 24.4 14.5 46 7.6 E 22 - 12 - 1013.9 1013.8 0.0
17/11:30am 26.9 24.0 15.0 48 7.2 E 24 - 13 - 1014.3 1014.2 0.0
17/11:00am 28.1 25.1 14.7 44 8.1 E 24 - 13 - 1014.5 1014.4 0.0
17/10:30am 28.5 27.4 14.3 41 8.6 E 13 - 7 - 1014.8 1014.7 0.0
17/10:00am 27.3 27.1 14.7 46 7.6 ESE 9 - 5 - 1014.9 1014.8 0.0
17/09:30am 25.9 25.9 14.1 48 7.0 N 7 - 4 - 1015.0 1014.9 0.0
17/09:00am 24.3 24.2 15.0 56 5.6 N 9 - 5 - 1015.0 1014.9 0.0
17/08:30am 22.8 24.1 15.1 62 4.6 ENE 2 - 1 - 1015.1 1015.0 0.0
17/08:00am 21.2 22.2 15.3 69 3.5 WNW 4 - 2 - 1015.1 1015.0 0.0
17/07:30am 20.0 21.7 16.2 79 2.3 N 2 - 1 - 1014.9 1014.8 0.0
17/07:00am 19.5 20.9 16.5 83 1.8 NW 4 - 2 - 1014.7 1014.6 0.0
17/06:30am 19.3 20.6 16.2 82 1.9 N 4 - 2 - 1014.5 1014.4 0.0
17/06:00am 19.5 20.8 16.2 81 2.0 N 4 - 2 - 1014.3 1014.2 0.0
17/05:30am 19.6 21.3 16.3 81 2.0 N 2 - 1 - 1014.4 1014.3 0.0
17/05:00am 20.0 21.2 16.8 82 1.9 NW 6 - 3 - 1014.4 1014.3 0.0
17/04:30am 20.1 21.5 16.5 80 2.2 NW 4 - 2 - 1014.5 1014.4 0.0
17/04:00am 20.2 20.9 16.2 78 2.4 W 7 - 4 - 1014.6 1014.5 0.0
17/03:30am 20.4 22.2 16.4 78 2.4 N 2 - 1 - 1014.8 1014.7 0.0
17/03:00am 20.5 21.7 15.9 75 2.8 NNW 4 - 2 - 1015.0 1014.9 0.0
17/02:30am 20.9 21.7 15.9 73 3.0 WNW 6 - 3 - 1015.3 1015.2 0.0
17/02:00am 21.2 21.9 16.0 72 3.1 WNW 7 - 4 - 1015.7 1015.6 0.0
17/01:30am 21.7 21.9 15.8 69 3.5 N 9 - 5 - 1016.0 1015.9 0.0
17/01:00am 22.2 22.0 15.8 67 3.8 NNE 11 - 6 - 1016.4 1016.3 0.0
17/12:30am 22.7 22.2 15.8 65 4.2 NNE 13 - 7 - 1016.8 1016.7 0.0
17/12:00am 23.0 21.7 15.8 64 4.3 NNE 17 - 9 - 1017.0 1016.9 0.0
 
Date/Time
EDT
Temp
°C
App
Temp
°C
Dew
Point
°C
Rel
Hum
%
Delta-T
°C
Wind Press
QNH
hPa
Press
MSL
hPa
Rain since
9am
mm
Dir  Spd
km/h
Gust
km/h
Spd
kts
Gust
kts
16/11:30pm 23.2 21.3 15.8 63 4.5 NNE 20 - 11 - 1016.9 1016.8 0.0
16/11:00pm 23.4 22.1 15.7 62 4.6 NNE 17 - 9 - 1017.3 1017.2 0.0
16/10:30pm 23.4 22.2 16.0 63 4.5 NNE 17 - 9 - 1017.5 1017.4 0.0
16/10:00pm 23.5 22.5 16.5 65 4.3 NNE 17 - 9 - 1017.4 1017.3 0.0
16/09:30pm 23.5 23.0 16.8 66 4.1 NE 15 - 8 - 1017.4 1017.3 0.0
16/09:00pm 23.7 22.7 16.5 64 4.4 NE 17 - 9 - 1017.3 1017.2 0.0
16/08:30pm 23.9 23.1 16.2 62 4.7 ENE 15 - 8 - 1017.0 1016.9 0.0
16/08:00pm 24.0 22.7 15.8 60 5.0 NE 17 - 9 - 1017.0 1016.9 0.0
16/07:30pm 24.2 22.4 15.4 58 5.3 ENE 19 - 10 - 1016.9 1016.8 0.0
16/07:00pm 24.6 22.6 15.5 57 5.5 ENE 20 - 11 - 1016.9 1016.8 0.0
16/06:30pm 24.9 23.3 15.0 54 5.9 ENE 17 - 9 - 1017.0 1016.9 0.0
16/06:00pm 24.9 22.9 13.8 50 6.5 ENE 17 - 9 - 1017.2 1017.1 0.0
16/05:30pm 25.3 22.5 14.4 50 6.5 ENE 22 - 12 - 1017.4 1017.3 0.0
16/05:00pm 25.5 22.5 14.9 52 6.4 E 24 - 13 - 1017.5 1017.4 0.0
16/04:30pm 25.3 23.0 14.7 51 6.3 ENE 20 - 11 - 1017.7 1017.6 0.0
16/04:00pm 26.2 24.1 14.6 48 6.9 E 19 - 10 - 1017.9 1017.8 0.0
16/03:30pm 26.3 22.8 13.4 45 7.6 E 24 - 13 - 1018.3 1018.2 0.0
16/03:00pm 27.0 23.6 13.7 44 7.9 E 24 - 13 - 1018.7 1018.6 0.0
16/02:30pm 27.3 24.2 12.1 39 8.8 ENE 20 - 11 - 1019.1 1019.0 0.0
16/02:00pm 27.6 24.9 11.6 37 9.2 NE 17 - 9 - 1019.6 1019.5 0.0
16/01:30pm 27.1 24.2 12.3 39 8.6 ENE 19 - 10 - 1019.9 1019.7 0.0
16/01:00pm 27.0 23.8 9.8 34 9.5 NE 17 - 9 - 1020.2 1020.0 0.0
16/12:30pm 27.5 24.6 12.3 39 8.8 E 19 - 10 - 1020.5 1020.3 0.0
16/12:00pm 27.1 24.8 10.3 35 9.4 ENE 13 - 7 - 1021.0 1020.8 0.0

Other formats

Comma delimited format used in spreadsheet applications
http://www.bom.gov.au/fwo/IDN60801/IDN60801.94768.axf

JavaScript Object Notation format (JSON) in row-major order
http://www.bom.gov.au/fwo/IDN60801/IDN60801.94768.json

Data quality

Most of these data are generated automatically and are frequently updated. Quality checks on data are not normally performed. It is possible for incorrect values to appear. Refer to information at About Latest Weather Observations and please check the disclaimer before using these data.